Time,TemperatureF,DewpointF,PressureIn,WindDirection,WindDirectionDegrees,WindSpeedMPH,WindSpeedGustMPH,Humidity,HourlyPrecipIn,Conditions,Clouds,dailyrainin,SoftwareType,DateUTC
2014-03-12 00:05:00,41.2,39.1,29.55,NE,45,1.7,-999.0,92,-99.99,,,0.00,Acu-Link.com,2014-03-12 04:05:00,
2014-03-12 00:20:00,40.8,37.8,29.55,ENE,67,0.0,-999.0,89,-99.99,,,0.00,Acu-Link.com,2014-03-12 04:20:00,
2014-03-12 00:36:00,40.5,37.8,29.54,NE,45,0.0,-999.0,90,-99.99,,,0.00,Acu-Link.com,2014-03-12 04:36:00,
2014-03-12 00:51:00,40.5,38.1,29.54,NNE,22,0.0,-999.0,91,-99.99,,,0.00,Acu-Link.com,2014-03-12 04:51:00,
2014-03-12 01:06:00,40.3,37.9,29.54,NE,45,1.7,-999.0,91,-99.99,,,0.00,Acu-Link.com,2014-03-12 05:06:00,
2014-03-12 01:21:00,40.3,38.2,29.54,NE,45,2.2,-999.0,92,-99.99,,,0.00,Acu-Link.com,2014-03-12 05:21:00,
2014-03-12 01:36:00,40.5,38.4,29.54,NE,45,1.7,-999.0,92,-99.99,,,0.00,Acu-Link.com,2014-03-12 05:36:00,
2014-03-12 01:52:00,40.5,38.4,29.54,NE,45,1.1,-999.0,92,-99.99,,,0.00,Acu-Link.com,2014-03-12 05:52:00,
2014-03-12 02:07:00,40.5,38.4,29.54,East,90,1.7,-999.0,92,-99.99,,,0.00,Acu-Link.com,2014-03-12 06:07:00,
2014-03-12 02:22:00,40.5,38.1,29.53,NE,45,0.0,-999.0,91,-99.99,,,0.00,Acu-Link.com,2014-03-12 06:22:00,
2014-03-12 02:38:00,40.6,37.9,29.52,East,90,2.7,-999.0,90,-99.99,,,0.00,Acu-Link.com,2014-03-12 06:38:00,
2014-03-12 02:53:00,41.0,37.7,29.51,NE,45,2.2,-999.0,88,-99.99,,,0.00,Acu-Link.com,2014-03-12 06:53:00,
2014-03-12 03:08:00,41.0,37.4,29.50,ENE,67,2.2,-999.0,87,-99.99,,,0.00,Acu-Link.com,2014-03-12 07:08:00,
2014-03-12 03:39:00,41.2,37.3,29.47,NE,45,2.2,-999.0,86,-99.99,,,0.00,Acu-Link.com,2014-03-12 07:39:00,
2014-03-12 03:54:00,41.4,37.5,29.46,ENE,67,2.2,-999.0,86,-99.99,,,0.00,Acu-Link.com,2014-03-12 07:54:00,
2014-03-12 04:09:00,41.4,37.5,29.46,NE,45,2.7,-999.0,86,-99.99,,,0.00,Acu-Link.com,2014-03-12 08:09:00,
2014-03-12 04:40:00,42.3,39.9,29.44,SE,135,2.7,-999.0,91,-99.99,,,0.00,Acu-Link.com,2014-03-12 08:40:00,
2014-03-12 04:55:00,42.1,39.9,29.44,SSE,157,2.2,-999.0,92,-99.99,,,0.00,Acu-Link.com,2014-03-12 08:55:00,
2014-03-12 05:10:00,42.1,40.2,29.43,SE,135,1.7,-999.0,93,-99.99,,,0.00,Acu-Link.com,2014-03-12 09:10:00,
2014-03-12 05:26:00,41.7,40.1,29.43,East,90,1.7,-999.0,94,-99.99,,,0.00,Acu-Link.com,2014-03-12 09:26:00,
2014-03-12 05:41:00,42.1,41.0,29.42,ESE,112,2.2,-999.0,96,-99.99,,,0.00,Acu-Link.com,2014-03-12 09:41:00,
2014-03-12 05:56:00,42.3,41.2,29.42,SSW,202,0.0,-999.0,96,-99.99,,,0.00,Acu-Link.com,2014-03-12 09:56:00,
2014-03-12 06:11:00,43.3,42.2,29.41,SSW,202,2.7,-999.0,96,-99.99,,,0.00,Acu-Link.com,2014-03-12 10:11:00,
2014-03-12 06:26:00,43.3,42.2,29.41,SW,225,3.2,-999.0,96,-99.99,,,0.00,Acu-Link.com,2014-03-12 10:26:00,
2014-03-12 06:42:00,43.3,42.2,29.41,South,180,2.7,-999.0,96,-99.99,,,0.00,Acu-Link.com,2014-03-12 10:42:00,
2014-03-12 06:57:00,42.6,41.5,29.41,ESE,112,0.0,-999.0,96,-99.99,,,0.00,Acu-Link.com,2014-03-12 10:57:00,
2014-03-12 07:12:00,42.3,41.2,29.40,South,180,1.1,-999.0,96,-99.99,,,0.00,Acu-Link.com,2014-03-12 11:12:00,
2014-03-12 07:28:00,44.2,42.9,29.40,South,180,5.3,-999.0,95,-99.99,,,0.00,Acu-Link.com,2014-03-12 11:28:00,
2014-03-12 07:43:00,44.8,42.9,29.39,SSW,202,5.8,-999.0,93,-99.99,,,0.00,Acu-Link.com,2014-03-12 11:43:00,
2014-03-12 07:58:00,45.0,42.8,29.38,South,180,8.3,-999.0,92,-99.99,,,0.00,Acu-Link.com,2014-03-12 11:58:00,
2014-03-12 08:13:00,45.3,42.5,29.38,SSW,202,6.8,-999.0,90,-99.99,,,0.00,Acu-Link.com,2014-03-12 12:13:00,
2014-03-12 08:28:00,46.0,43.2,29.37,SSW,202,6.3,-999.0,90,-99.99,,,0.00,Acu-Link.com,2014-03-12 12:28:00,
2014-03-12 08:43:00,46.8,43.7,29.37,SW,225,5.8,-999.0,89,-99.99,,,0.00,Acu-Link.com,2014-03-12 12:43:00,
2014-03-12 08:58:00,46.9,43.8,29.36,SSW,202,4.7,-999.0,89,-99.99,,,0.00,Acu-Link.com,2014-03-12 12:58:00,
2014-03-12 09:13:00,47.3,43.9,29.35,South,180,5.3,-999.0,88,-99.99,,,0.00,Acu-Link.com,2014-03-12 13:13:00,
2014-03-12 09:28:00,47.5,43.8,29.35,SSE,157,8.3,-999.0,87,-99.99,,,0.00,Acu-Link.com,2014-03-12 13:28:00,
2014-03-12 09:43:00,48.2,43.9,29.35,South,180,8.9,-999.0,85,-99.99,,,0.00,Acu-Link.com,2014-03-12 13:43:00,
2014-03-12 09:59:00,49.1,44.2,29.34,SW,225,4.7,-999.0,83,-99.99,,,0.00,Acu-Link.com,2014-03-12 13:59:00,
2014-03-12 10:14:00,49.5,44.2,29.32,SSW,202,7.8,-999.0,82,-99.99,,,0.00,Acu-Link.com,2014-03-12 14:14:00,
2014-03-12 10:29:00,50.5,44.6,29.31,SW,225,6.3,-999.0,80,-99.99,,,0.00,Acu-Link.com,2014-03-12 14:29:00,
2014-03-12 10:44:00,50.5,43.9,29.29,SSW,202,6.8,-999.0,78,-99.99,,,0.00,Acu-Link.com,2014-03-12 14:44:00,
2014-03-12 10:59:00,50.7,44.1,29.28,West,270,5.3,-999.0,78,-99.99,,,0.00,Acu-Link.com,2014-03-12 14:59:00,
2014-03-12 11:14:00,51.8,45.2,29.27,South,180,4.7,-999.0,78,-99.99,,,0.00,Acu-Link.com,2014-03-12 15:14:00,
2014-03-12 11:29:00,50.2,44.3,29.24,South,180,8.9,-999.0,80,-99.99,,,0.00,Acu-Link.com,2014-03-12 15:29:00,
2014-03-12 11:45:00,49.6,44.3,29.24,SSW,202,5.3,-999.0,82,-99.99,,,0.00,Acu-Link.com,2014-03-12 15:45:00,
2014-03-12 12:00:00,49.6,44.7,29.23,SW,225,7.3,-999.0,83,-99.99,,,0.00,Acu-Link.com,2014-03-12 16:00:00,
2014-03-12 12:15:00,50.4,44.8,29.21,SSW,202,7.8,-999.0,81,-99.99,,,0.00,Acu-Link.com,2014-03-12 16:15:00,
2014-03-12 12:30:00,50.5,44.6,29.19,SSE,157,8.9,-999.0,80,-99.99,,,0.00,Acu-Link.com,2014-03-12 16:30:00,
2014-03-12 12:45:00,48.9,43.3,29.17,SSW,202,8.3,-999.0,81,-99.99,,,0.00,Acu-Link.com,2014-03-12 16:45:00,
2014-03-12 13:00:00,49.6,44.0,29.16,SSW,202,15.0,-999.0,81,-99.99,,,0.00,Acu-Link.com,2014-03-12 17:00:00,
2014-03-12 13:15:00,50.2,44.3,29.15,SW,225,13.0,-999.0,80,-99.99,,,0.00,Acu-Link.com,2014-03-12 17:15:00,
2014-03-12 13:30:00,49.5,44.2,29.14,SSW,202,14.0,-999.0,82,-99.99,,,0.00,Acu-Link.com,2014-03-12 17:30:00,
2014-03-12 13:45:00,49.1,44.2,29.14,SSW,202,20.2,-999.0,83,-99.99,,,0.00,Acu-Link.com,2014-03-12 17:45:00,
2014-03-12 14:01:00,48.6,44.0,29.13,SSW,202,16.6,-999.0,84,-99.99,,,0.00,Acu-Link.com,2014-03-12 18:01:00,
2014-03-12 14:16:00,48.6,44.0,29.12,SSW,202,14.0,-999.0,84,-99.99,,,0.00,Acu-Link.com,2014-03-12 18:16:00,
2014-03-12 14:31:00,48.4,43.8,29.11,SSW,202,13.5,-999.0,84,-99.99,,,0.00,Acu-Link.com,2014-03-12 18:31:00,
2014-03-12 14:46:00,48.7,44.1,29.11,SSW,202,7.8,-999.0,84,-99.99,,,0.00,Acu-Link.com,2014-03-12 18:46:00,
2014-03-12 15:01:00,47.5,43.5,29.11,SSE,157,7.8,-999.0,86,-99.99,,,0.00,Acu-Link.com,2014-03-12 19:01:00,
2014-03-12 15:17:00,47.1,43.4,29.10,SSW,202,11.4,-999.0,87,-99.99,,,0.00,Acu-Link.com,2014-03-12 19:17:00,
2014-03-12 15:32:00,47.1,43.7,29.09,SSW,202,10.9,-999.0,88,-99.99,,,0.00,Acu-Link.com,2014-03-12 19:32:00,
2014-03-12 15:47:00,46.4,43.9,29.07,SSW,202,6.3,-999.0,91,-99.99,,,0.00,Acu-Link.com,2014-03-12 19:47:00,
2014-03-12 16:02:00,46.2,44.3,29.06,SW,225,8.9,-999.0,93,-99.99,,,0.02,Acu-Link.com,2014-03-12 20:02:00,
2014-03-12 16:17:00,46.2,44.6,29.05,South,180,4.7,-999.0,94,-99.99,,,0.04,Acu-Link.com,2014-03-12 20:17:00,
2014-03-12 16:32:00,46.6,45.0,29.04,South,180,6.3,-999.0,94,-99.99,,,0.06,Acu-Link.com,2014-03-12 20:32:00,
2014-03-12 16:48:00,46.2,44.8,29.03,SW,225,8.9,-999.0,95,-99.99,,,0.10,Acu-Link.com,2014-03-12 20:48:00,
2014-03-12 17:03:00,46.9,45.5,29.01,South,180,9.9,-999.0,95,-99.99,,,0.12,Acu-Link.com,2014-03-12 21:03:00,
2014-03-12 17:18:00,46.6,45.2,29.00,South,180,5.3,-999.0,95,-99.99,,,0.13,Acu-Link.com,2014-03-12 21:18:00,
2014-03-12 17:33:00,46.6,45.2,28.98,SW,225,7.3,-999.0,95,-99.99,,,0.13,Acu-Link.com,2014-03-12 21:33:00,
2014-03-12 17:48:00,46.8,45.4,28.98,SSW,202,8.9,-999.0,95,-99.99,,,0.13,Acu-Link.com,2014-03-12 21:48:00,
2014-03-12 18:04:00,46.4,45.0,28.97,SSW,202,9.4,-999.0,95,-99.99,,,0.13,Acu-Link.com,2014-03-12 22:04:00,
2014-03-12 18:19:00,46.9,45.5,28.97,SW,225,13.0,-999.0,95,-99.99,,,0.13,Acu-Link.com,2014-03-12 22:19:00,
2014-03-12 18:34:00,47.5,45.9,28.96,SSW,202,13.0,-999.0,94,-99.99,,,0.13,Acu-Link.com,2014-03-12 22:34:00,
2014-03-12 18:49:00,47.3,45.4,28.95,SSW,202,18.1,-999.0,93,-99.99,,,0.14,Acu-Link.com,2014-03-12 22:49:00,
2014-03-12 19:04:00,47.1,45.2,28.94,SW,225,14.0,-999.0,93,-99.99,,,0.14,Acu-Link.com,2014-03-12 23:04:00,
2014-03-12 19:34:00,46.8,44.9,28.93,SSW,202,14.0,-999.0,93,-99.99,,,0.14,Acu-Link.com,2014-03-12 23:34:00,
2014-03-12 19:50:00,46.4,44.8,28.92,SW,225,10.9,-999.0,94,-99.99,,,0.14,Acu-Link.com,2014-03-12 23:50:00,
2014-03-12 20:05:00,46.2,44.6,28.93,SW,225,16.1,-999.0,94,-99.99,,,0.14,Acu-Link.com,2014-03-13 00:05:00,
2014-03-12 20:20:00,46.2,44.6,28.92,SW,225,16.1,-999.0,94,-99.99,,,0.14,Acu-Link.com,2014-03-13 00:20:00,
2014-03-12 20:35:00,45.9,44.3,28.93,SSW,202,9.9,-999.0,94,-99.99,,,0.14,Acu-Link.com,2014-03-13 00:35:00,
2014-03-12 20:50:00,46.9,45.8,28.96,NNW,337,6.3,-999.0,96,-99.99,,,0.14,Acu-Link.com,2014-03-13 00:50:00,
2014-03-12 21:06:00,50.5,49.4,28.95,SW,225,4.7,-999.0,96,-99.99,,,0.14,Acu-Link.com,2014-03-13 01:06:00,
2014-03-12 21:21:00,51.4,50.3,28.96,NW,315,2.7,-999.0,96,-99.99,,,0.22,Acu-Link.com,2014-03-13 01:21:00,
2014-03-12 21:36:00,51.6,50.5,28.96,NE,45,2.7,-999.0,96,-99.99,,,0.26,Acu-Link.com,2014-03-13 01:36:00,
2014-03-12 21:51:00,51.8,51.0,28.96,NNW,337,2.7,-999.0,97,-99.99,,,0.28,Acu-Link.com,2014-03-13 01:51:00,
2014-03-12 22:07:00,53.1,50.8,28.96,WSW,247,8.9,-999.0,92,-99.99,,,0.28,Acu-Link.com,2014-03-13 02:07:00,
2014-03-12 22:22:00,52.9,50.3,28.97,North,0,8.9,-999.0,91,-99.99,,,0.29,Acu-Link.com,2014-03-13 02:22:00,
2014-03-12 22:37:00,51.8,47.4,28.99,WNW,292,13.0,-999.0,85,-99.99,,,0.30,Acu-Link.com,2014-03-13 02:37:00,
2014-03-12 22:52:00,48.9,43.7,29.03,WNW,292,8.9,-999.0,82,-99.99,,,0.30,Acu-Link.com,2014-03-13 02:52:00,
2014-03-12 23:08:00,45.5,40.3,29.05,NW,315,15.0,-999.0,82,-99.99,,,0.30,Acu-Link.com,2014-03-13 03:08:00,
2014-03-12 23:23:00,42.6,37.5,29.06,WNW,292,14.0,-999.0,82,-99.99,,,0.31,Acu-Link.com,2014-03-13 03:23:00,
2014-03-12 23:38:00,41.0,35.3,29.07,WNW,292,17.1,-999.0,80,-99.99,,,0.31,Acu-Link.com,2014-03-13 03:38:00,
2014-03-12 23:53:00,39.2,33.6,29.07,West,270,13.5,-999.0,80,-99.99,,,0.31,Acu-Link.com,2014-03-13 03:53:00,